createdAt,value
2019-04-05T00:00:16.550Z,34.30
2019-04-05T00:02:45.810Z,37.90
2019-04-05T00:05:15.716Z,41.80
2019-04-05T00:07:45.009Z,39.40
2019-04-05T00:10:15.131Z,33.83
2019-04-05T00:12:44.358Z,36.93
2019-04-05T00:15:16.037Z,43.37
2019-04-05T00:17:45.214Z,36.83
2019-04-05T00:20:16.375Z,36.03
2019-04-05T00:22:45.714Z,39.07
2019-04-05T00:25:15.037Z,40.97
2019-04-05T00:27:45.143Z,38.00
2019-04-05T00:30:14.766Z,32.73
2019-04-05T00:32:44.066Z,40.57
2019-04-05T00:35:13.379Z,39.07
2019-04-05T00:37:42.628Z,40.37
2019-04-05T00:40:12.769Z,37.90
2019-04-05T00:42:42.015Z,33.30
2019-04-05T00:45:11.273Z,39.40
2019-04-05T00:47:40.615Z,40.70
2019-04-05T00:50:10.770Z,38.83
2019-04-05T00:52:40.022Z,44.23
2019-04-05T00:55:10.397Z,36.60
2019-04-05T00:57:40.160Z,37.13
2019-04-05T01:00:09.791Z,38.93
2019-04-05T01:02:39.162Z,39.13
2019-04-05T01:05:08.556Z,40.80
2019-04-05T01:07:37.866Z,37.77
2019-04-05T01:10:08.136Z,43.97
2019-04-05T01:12:39.101Z,36.03
2019-04-05T01:15:09.505Z,39.03
2019-04-05T01:17:39.179Z,37.13
2019-04-05T01:20:08.888Z,36.10
2019-04-05T01:22:39.313Z,36.87
2019-04-05T01:25:08.735Z,41.37
2019-04-05T01:27:40.619Z,32.53
2019-04-05T01:30:11.994Z,43.30
2019-04-05T01:32:41.242Z,41.77
2019-04-05T01:35:10.916Z,36.97
2019-04-05T01:37:41.484Z,37.17
2019-04-05T01:40:12.426Z,40.70
2019-04-05T01:42:42.662Z,39.67
2019-04-05T01:45:12.769Z,39.70
2019-04-05T01:47:42.092Z,40.30
2019-04-05T01:50:11.945Z,38.40
2019-04-05T01:52:42.445Z,43.67
2019-04-05T01:55:11.975Z,38.53
2019-04-05T01:57:41.327Z,42.50
2019-04-05T02:00:12.723Z,40.73
2019-04-05T02:02:42.353Z,41.50
2019-04-05T02:05:11.705Z,43.70
2019-04-05T02:07:41.503Z,40.40
2019-04-05T02:10:11.780Z,41.03
2019-04-05T02:12:41.503Z,39.80
2019-04-05T02:15:12.690Z,37.83
2019-04-05T02:17:41.990Z,35.30
2019-04-05T02:20:11.693Z,35.73
2019-04-05T02:22:41.000Z,39.57
2019-04-05T02:25:10.337Z,40.90
2019-04-05T02:27:39.670Z,36.00
2019-04-05T02:30:09.126Z,41.60
2019-04-05T02:32:38.459Z,41.23
2019-04-05T02:35:08.829Z,37.07
2019-04-05T02:37:38.296Z,36.37
2019-04-05T02:40:11.103Z,39.17
2019-04-05T02:42:43.173Z,38.67
2019-04-05T02:45:13.869Z,35.70
2019-04-05T02:47:45.933Z,40.23
2019-04-05T02:50:18.261Z,42.00
2019-04-05T02:52:50.541Z,41.73
2019-04-05T02:55:21.600Z,41.87
2019-04-05T02:57:51.327Z,40.50
2019-04-05T03:00:20.741Z,39.47
2019-04-05T03:02:51.215Z,42.50
2019-04-05T03:05:22.356Z,42.37
2019-04-05T03:07:51.843Z,43.87
2019-04-05T03:10:53.020Z,37.07
2019-04-05T03:13:23.905Z,43.60
2019-04-05T03:15:56.477Z,40.50
2019-04-05T03:18:29.037Z,38.20
2019-04-05T03:21:01.483Z,43.67
2019-04-05T03:23:33.409Z,39.77
2019-04-05T03:26:05.448Z,40.77
2019-04-05T03:28:37.604Z,37.33
2019-04-05T03:31:07.163Z,41.87
2019-04-05T03:33:36.659Z,39.93
2019-04-05T03:36:06.030Z,40.53
2019-04-05T03:38:35.368Z,39.03
2019-04-05T03:41:05.067Z,36.70
2019-04-05T03:43:35.468Z,40.87
2019-04-05T03:46:05.150Z,38.27
2019-04-05T03:48:34.877Z,40.70
2019-04-05T03:51:04.343Z,46.70
2019-04-05T03:53:33.647Z,38.50
2019-04-05T03:56:03.455Z,37.17
2019-04-05T03:58:33.156Z,42.47
2019-04-05T04:01:02.559Z,41.40
2019-04-05T04:03:33.416Z,41.17
2019-04-05T04:06:02.818Z,40.80
2019-04-05T04:08:32.905Z,45.07
2019-04-05T04:11:02.884Z,41.10
2019-04-05T04:13:33.126Z,40.00
2019-04-05T04:16:02.909Z,38.70
2019-04-05T04:18:32.928Z,44.07
2019-04-05T04:21:08.758Z,35.53
2019-04-05T04:23:37.993Z,38.33
2019-04-05T04:26:07.551Z,40.70
2019-04-05T04:28:37.626Z,38.10
2019-04-05T04:31:08.849Z,38.43
2019-04-05T04:33:38.169Z,35.40
2019-04-05T04:36:07.893Z,38.23
2019-04-05T04:38:37.297Z,38.03
2019-04-05T04:41:06.640Z,44.37
2019-04-05T04:43:36.607Z,47.63
2019-04-05T04:46:07.051Z,40.07
2019-04-05T04:48:36.982Z,37.80
2019-04-05T04:51:06.961Z,44.13
2019-04-05T04:53:36.367Z,39.90
2019-04-05T04:56:05.874Z,35.83
2019-04-05T04:58:35.520Z,41.17
2019-04-05T05:01:05.454Z,38.07
2019-04-05T05:03:34.711Z,36.73
2019-04-05T05:06:04.400Z,38.07
2019-04-05T05:08:34.011Z,36.83
2019-04-05T05:11:13.883Z,39.23
2019-04-05T05:13:34.598Z,38.50
2019-04-05T05:16:04.166Z,42.33
2019-04-05T05:18:33.515Z,37.47
2019-04-05T05:21:02.918Z,37.90
2019-04-05T05:23:33.258Z,35.57
2019-04-05T05:26:03.176Z,39.33
2019-04-05T05:28:32.957Z,32.63
2019-04-05T05:31:02.663Z,34.90
2019-04-05T05:33:32.435Z,39.03
2019-04-05T05:36:02.891Z,38.37
2019-04-05T05:38:32.318Z,36.67
2019-04-05T05:41:01.646Z,39.53
2019-04-05T05:43:30.924Z,42.43
2019-04-05T05:46:00.203Z,36.23
2019-04-05T05:48:31.129Z,39.47
2019-04-05T05:51:00.693Z,38.80
2019-04-05T05:53:30.014Z,36.27
2019-04-05T05:55:59.330Z,36.50
2019-04-05T05:58:28.563Z,39.60
2019-04-05T06:00:57.806Z,41.50
2019-04-05T06:03:27.086Z,37.10
2019-04-05T06:06:04.125Z,38.33
2019-04-05T06:08:29.348Z,40.47
2019-04-05T06:10:58.863Z,35.60
2019-04-05T06:13:28.091Z,38.17
2019-04-05T06:15:57.898Z,38.63
2019-04-05T06:18:27.240Z,39.70
2019-04-05T06:20:56.487Z,37.40
2019-04-05T06:23:33.624Z,38.87
2019-04-05T06:25:56.747Z,39.60
2019-04-05T06:28:26.083Z,35.47
2019-04-05T06:30:55.333Z,37.70
2019-04-05T06:33:31.341Z,38.87
2019-04-05T06:35:55.596Z,40.00
2019-04-05T06:38:25.282Z,37.57
2019-04-05T06:40:54.658Z,35.80
2019-04-05T06:43:23.916Z,35.43
2019-04-05T06:45:53.215Z,36.20
2019-04-05T06:48:22.418Z,32.97
2019-04-05T06:50:51.670Z,37.97
2019-04-05T06:53:21.273Z,35.43
2019-04-05T06:55:50.612Z,34.10
2019-04-05T06:58:20.269Z,31.40
2019-04-05T07:00:56.977Z,31.33
2019-04-05T07:03:20.701Z,34.87
2019-04-05T07:05:50.019Z,39.47
2019-04-05T07:08:19.720Z,40.40
2019-04-05T07:10:49.092Z,36.47
2019-04-05T07:13:18.411Z,28.73
2019-04-05T07:15:47.636Z,33.83
2019-04-05T07:18:16.942Z,42.37
2019-04-05T07:20:46.202Z,38.03
2019-04-05T07:23:15.454Z,32.80
2019-04-05T07:25:44.714Z,30.03
2019-04-05T07:28:14.545Z,28.23
2019-04-05T07:30:43.880Z,29.10
2019-04-05T07:33:13.208Z,31.57
2019-04-05T07:35:42.499Z,32.93
2019-04-05T07:38:11.802Z,28.80
2019-04-05T07:40:41.050Z,30.60
2019-04-05T07:43:10.595Z,31.63
2019-04-05T07:45:39.867Z,29.27
2019-04-05T07:48:09.436Z,33.40
2019-04-05T07:50:38.800Z,36.80
2019-04-05T07:53:08.143Z,35.67
2019-04-05T07:55:37.494Z,32.57
2019-04-05T07:58:06.844Z,47.33
2019-04-05T08:01:02.737Z,34.17
2019-04-05T08:03:32.094Z,29.23
2019-04-05T08:06:01.837Z,26.20
2019-04-05T08:08:40.507Z,29.90
2019-04-05T08:11:10.213Z,31.37
2019-04-05T08:13:41.580Z,25.90
2019-04-05T08:16:10.930Z,31.77
2019-04-05T08:18:40.264Z,29.80
2019-04-05T08:21:09.506Z,31.33
2019-04-05T08:23:38.873Z,40.20
2019-04-05T08:26:08.752Z,35.87
2019-04-05T08:28:38.296Z,33.00
2019-04-05T08:31:10.708Z,41.90
2019-04-05T08:33:38.569Z,42.37
2019-04-05T08:36:07.878Z,34.03
2019-04-05T08:38:39.710Z,35.90
2019-04-05T08:41:08.162Z,62.67
2019-04-05T08:43:37.474Z,32.17
2019-04-05T08:46:06.921Z,31.33
2019-04-05T08:48:36.200Z,30.27
2019-04-05T08:51:05.822Z,32.43
2019-04-05T08:53:35.690Z,24.90
2019-04-05T08:56:05.918Z,31.03
2019-04-05T08:58:35.256Z,29.17
2019-04-05T09:01:04.614Z,27.07
2019-04-05T09:03:33.891Z,26.40
2019-04-05T09:06:03.206Z,28.27
2019-04-05T09:08:32.435Z,31.43
2019-04-05T09:11:02.030Z,27.03
2019-04-05T09:13:31.375Z,27.37
2019-04-05T09:16:00.738Z,29.70
2019-04-05T09:18:29.978Z,25.97
2019-04-05T09:20:59.361Z,29.70
2019-04-05T09:23:28.617Z,29.63
2019-04-05T09:25:57.950Z,30.00
2019-04-05T09:28:28.083Z,28.17
2019-04-05T09:30:57.325Z,27.03
2019-04-05T09:33:29.621Z,28.27
2019-04-05T09:35:58.813Z,31.20
2019-04-05T09:38:28.124Z,31.47
2019-04-05T09:40:57.391Z,27.70
2019-04-05T09:43:26.642Z,24.87
2019-04-05T09:45:55.971Z,25.97
2019-04-05T09:48:25.660Z,27.70
2019-04-05T09:50:54.891Z,30.73
2019-04-05T09:53:24.202Z,28.60
2019-04-05T09:55:53.526Z,26.73
2019-04-05T09:58:22.860Z,27.43
2019-04-05T10:00:53.005Z,24.90
2019-04-05T10:03:22.255Z,28.13
2019-04-05T10:05:51.582Z,25.63
2019-04-05T10:08:21.069Z,29.73
2019-04-05T10:10:51.197Z,31.03
2019-04-05T10:13:20.425Z,24.63
2019-04-05T10:15:49.714Z,26.03
2019-04-05T10:18:19.076Z,24.03
2019-04-05T10:20:48.407Z,26.43
2019-04-05T10:23:17.750Z,20.67
2019-04-05T10:25:47.775Z,22.33
2019-04-05T10:28:17.124Z,20.40
2019-04-05T10:30:46.370Z,24.53
2019-04-05T10:33:16.292Z,26.63
2019-04-05T10:35:45.617Z,26.17
2019-04-05T10:38:14.853Z,23.43
2019-04-05T10:40:44.541Z,21.73
2019-04-05T10:43:13.823Z,21.80
2019-04-05T10:45:43.218Z,21.53
2019-04-05T10:48:12.474Z,20.33
2019-04-05T10:50:41.745Z,22.23
2019-04-05T10:53:10.972Z,21.80
2019-04-05T10:55:40.315Z,26.60
2019-04-05T10:58:09.741Z,20.37
2019-04-05T11:00:39.187Z,20.40
2019-04-05T11:03:08.503Z,17.37
2019-04-05T11:05:37.861Z,23.03
2019-04-05T11:08:07.125Z,20.83
2019-04-05T11:10:36.478Z,19.77
2019-04-05T11:13:07.803Z,21.40
2019-04-05T11:15:37.126Z,21.00
2019-04-05T11:18:06.403Z,20.07
2019-04-05T11:20:35.634Z,18.00
2019-04-05T11:23:05.114Z,19.57
2019-04-05T11:25:34.394Z,21.83
2019-04-05T11:28:04.307Z,25.43
2019-04-05T11:30:51.574Z,20.85
2019-04-05T11:33:20.918Z,20.57
2019-04-05T11:35:50.161Z,21.03
2019-04-05T11:38:20.363Z,21.23
2019-04-05T11:40:50.526Z,22.32
2019-04-05T11:43:20.767Z,23.13
2019-04-05T11:45:51.470Z,21.27
2019-04-05T11:48:20.826Z,20.67
2019-04-05T11:50:50.147Z,23.20
2019-04-05T11:53:22.002Z,22.80
2019-04-05T11:55:50.984Z,21.70
2019-04-05T11:58:20.234Z,20.43
2019-04-05T12:01:17.812Z,22.77
2019-04-05T12:03:47.131Z,22.93
2019-04-05T12:06:16.358Z,19.07
2019-04-05T12:08:45.705Z,17.40
2019-04-05T12:11:14.965Z,23.42
2019-04-05T12:13:44.218Z,20.72
2019-04-05T12:16:13.482Z,19.43
2019-04-05T12:18:42.660Z,17.07
2019-04-05T12:21:11.999Z,20.10
2019-04-05T12:23:41.474Z,18.83
2019-04-05T12:26:10.762Z,23.37
2019-04-05T12:28:40.033Z,23.70
2019-04-05T12:31:10.487Z,22.37
2019-04-05T12:33:39.860Z,21.17
2019-04-05T12:36:09.290Z,24.23
2019-04-05T12:38:39.123Z,22.93
2019-04-05T12:41:10.825Z,21.60
2019-04-05T12:43:39.424Z,25.82
2019-04-05T12:46:08.748Z,21.47
2019-04-05T12:48:38.385Z,23.73
2019-04-05T12:51:07.665Z,24.12
2019-04-05T12:53:37.020Z,24.73
2019-04-05T12:56:07.713Z,22.77
2019-04-05T12:58:37.055Z,21.87
2019-04-05T13:01:08.304Z,22.27
2019-04-05T13:03:38.024Z,19.33
2019-04-05T13:06:07.444Z,22.67
2019-04-05T13:08:36.767Z,24.47
2019-04-05T13:11:06.124Z,20.20
2019-04-05T13:13:35.355Z,20.40
2019-04-05T13:16:05.202Z,17.17
2019-04-05T13:18:34.528Z,16.52
2019-04-05T13:21:14.308Z,19.30
2019-04-05T13:23:36.550Z,21.83
2019-04-05T13:26:07.175Z,17.48
2019-04-05T13:28:36.490Z,16.30
2019-04-05T13:31:05.968Z,16.12
2019-04-05T13:33:35.378Z,16.97
2019-04-05T13:36:08.193Z,20.67
2019-04-05T13:38:36.170Z,20.12
2019-04-05T13:41:05.489Z,18.43
2019-04-05T13:43:35.155Z,18.67
2019-04-05T13:46:05.943Z,16.67
2019-04-05T13:48:35.280Z,18.37
2019-04-05T13:51:07.123Z,19.70
2019-04-05T13:53:35.530Z,17.17
2019-04-05T13:56:04.975Z,25.60
2019-04-05T13:58:34.830Z,15.95
2019-04-05T14:01:04.731Z,18.30
2019-04-05T14:03:34.055Z,17.57
2019-04-05T14:06:03.435Z,22.02
2019-04-05T14:08:32.669Z,17.73
2019-04-05T14:11:02.034Z,20.87
2019-04-05T14:13:31.400Z,28.83
2019-04-05T14:16:00.652Z,25.57
2019-04-05T14:18:29.966Z,22.55
2019-04-05T14:20:59.293Z,28.45
2019-04-05T14:23:28.502Z,23.57
2019-04-05T14:25:59.917Z,25.05
2019-04-05T14:28:29.148Z,20.97
2019-04-05T14:30:58.407Z,19.57
2019-04-05T14:33:27.792Z,22.48
2019-04-05T14:35:57.034Z,25.25
2019-04-05T14:38:26.295Z,23.07
2019-04-05T14:40:55.619Z,24.50
2019-04-05T14:43:24.953Z,19.15
2019-04-05T14:45:54.336Z,19.73
2019-04-05T14:48:27.304Z,21.60
2019-04-05T14:50:57.485Z,22.30
2019-04-05T14:53:26.026Z,23.95
2019-04-05T14:55:59.074Z,18.98
2019-04-05T14:58:26.914Z,21.17
2019-04-05T15:00:56.305Z,18.55
2019-04-05T15:03:25.579Z,17.73
2019-04-05T15:05:57.390Z,19.23
2019-04-05T15:08:26.647Z,19.95
2019-04-05T15:10:56.874Z,26.15
2019-04-05T15:13:26.713Z,23.10
2019-04-05T15:15:56.803Z,24.40
2019-04-05T15:18:26.375Z,21.10
2019-04-05T15:20:55.724Z,22.70
2019-04-05T15:23:25.064Z,21.52
2019-04-05T15:25:54.396Z,20.57
2019-04-05T15:28:24.770Z,18.85
2019-04-05T15:30:56.254Z,24.05
2019-04-05T15:33:27.839Z,27.67
2019-04-05T15:36:00.155Z,48.73
2019-04-05T15:38:31.330Z,23.73
2019-04-05T15:40:59.406Z,20.27
2019-04-05T15:43:28.682Z,24.95
2019-04-05T15:45:58.027Z,19.92
2019-04-05T15:48:27.287Z,18.85
2019-04-05T15:50:59.083Z,23.13
2019-04-05T15:53:31.632Z,23.80
2019-04-05T15:56:03.862Z,22.50
2019-04-05T15:58:31.519Z,21.87
2019-04-05T16:01:04.138Z,19.92
2019-04-05T16:03:33.176Z,22.17
2019-04-05T16:06:02.450Z,23.37
2019-04-05T16:08:31.933Z,20.40
2019-04-05T16:11:01.337Z,27.00
2019-04-05T16:13:30.585Z,22.47
2019-04-05T16:15:59.903Z,29.80
2019-04-05T16:18:29.210Z,22.53
2019-04-05T16:20:58.788Z,20.80
2019-04-05T16:23:28.051Z,23.57
2019-04-05T16:25:57.399Z,23.57
2019-04-05T16:28:26.709Z,22.27
2019-04-05T16:30:55.992Z,23.67
2019-04-05T16:33:25.299Z,28.53
2019-04-05T16:35:54.552Z,24.40
2019-04-05T16:38:23.809Z,26.67
2019-04-05T16:40:53.176Z,24.63
2019-04-05T16:43:22.489Z,31.00
2019-04-05T16:45:51.735Z,27.60
2019-04-05T16:48:21.252Z,28.60
2019-04-05T16:50:50.563Z,31.30
2019-04-05T16:53:19.825Z,28.07
2019-04-05T16:55:49.593Z,27.07
2019-04-05T16:58:18.847Z,28.77
2019-04-05T17:00:48.164Z,28.00
2019-04-05T17:03:17.456Z,25.17
2019-04-05T17:05:46.689Z,31.03
2019-04-05T17:08:16.005Z,28.33
2019-04-05T17:10:45.175Z,26.00
2019-04-05T17:13:14.427Z,29.00
2019-04-05T17:15:43.819Z,27.00
2019-04-05T17:18:13.131Z,35.47
2019-04-05T17:20:42.434Z,46.37
2019-04-05T17:23:11.769Z,42.30
2019-04-05T17:25:41.015Z,30.20
2019-04-05T17:28:10.379Z,33.50
2019-04-05T17:30:39.702Z,35.70
2019-04-05T17:33:08.973Z,29.83
2019-04-05T17:35:38.239Z,28.07
2019-04-05T17:38:07.553Z,33.07
2019-04-05T17:40:36.900Z,32.57
2019-04-05T17:43:06.151Z,33.90
2019-04-05T17:45:35.419Z,30.77
2019-04-05T17:48:04.745Z,37.47
2019-04-05T17:50:34.963Z,32.80
2019-04-05T17:53:12.502Z,33.57
2019-04-05T17:55:36.585Z,33.13
2019-04-05T17:58:06.611Z,33.30
2019-04-05T18:00:36.241Z,50.97
2019-04-05T18:03:05.582Z,50.90
2019-04-05T18:05:34.862Z,55.60
2019-04-05T18:08:04.123Z,64.30
2019-04-05T18:10:33.299Z,61.10
2019-04-05T18:13:02.646Z,52.37
2019-04-05T18:15:31.896Z,39.17
2019-04-05T18:18:01.218Z,28.27
2019-04-05T18:20:30.571Z,29.17
2019-04-05T18:23:00.003Z,31.33
2019-04-05T18:25:29.327Z,35.27
2019-04-05T18:27:58.590Z,35.83
2019-04-05T18:30:27.902Z,33.33
2019-04-05T18:32:57.275Z,37.00
2019-04-05T18:35:26.591Z,33.67
2019-04-05T18:37:56.234Z,31.50
2019-04-05T18:40:25.574Z,36.27
2019-04-05T18:42:54.897Z,37.40
2019-04-05T18:45:25.030Z,45.40
2019-04-05T18:47:54.286Z,44.27
2019-04-05T18:50:23.607Z,45.83
2019-04-05T18:52:52.955Z,53.10
2019-04-05T18:55:22.700Z,44.30
2019-04-05T18:57:52.016Z,45.07
2019-04-05T19:00:22.840Z,45.60
2019-04-05T19:02:52.144Z,45.77
2019-04-05T19:05:21.481Z,46.73
2019-04-05T19:07:50.764Z,40.67
2019-04-05T19:10:20.088Z,41.13
2019-04-05T19:12:49.920Z,40.37
2019-04-05T19:15:19.331Z,38.03
2019-04-05T19:17:48.582Z,38.73
2019-04-05T19:20:18.381Z,44.27
2019-04-05T19:22:47.631Z,48.57
2019-04-05T19:25:16.997Z,48.13
2019-04-05T19:27:46.358Z,46.87
2019-04-05T19:50:24.705Z,39.60
2019-04-05T19:52:54.058Z,47.40
2019-04-05T19:55:23.391Z,41.40
2019-04-05T19:57:52.654Z,46.53
2019-04-05T20:00:22.134Z,57.33
2019-04-05T20:02:51.371Z,50.23
2019-04-05T20:05:20.724Z,71.50
2019-04-05T20:07:50.485Z,67.97
2019-04-05T20:10:19.864Z,67.67
2019-04-05T20:12:49.196Z,63.93
2019-04-05T20:15:18.874Z,57.37
2019-04-05T20:17:48.227Z,49.63
2019-04-05T20:20:17.548Z,52.33
2019-04-05T20:22:46.908Z,46.63
2019-04-05T20:25:16.271Z,45.00
2019-04-05T20:27:45.594Z,54.57
2019-04-05T20:30:14.887Z,57.90
2019-04-05T20:32:44.198Z,54.60
2019-04-05T20:35:13.538Z,56.60
2019-04-05T20:37:42.823Z,46.67
2019-04-05T20:40:12.444Z,51.20
2019-04-05T20:42:41.772Z,54.43
2019-04-05T20:45:11.227Z,50.77
2019-04-05T20:47:40.555Z,57.03
2019-04-05T20:50:11.592Z,68.47
2019-04-05T20:52:41.147Z,72.00
2019-04-05T20:55:11.089Z,59.77
2019-04-05T20:57:40.427Z,63.87
2019-04-05T21:00:12.195Z,56.50
2019-04-05T21:02:41.491Z,55.50
2019-04-05T21:05:10.814Z,55.03
2019-04-05T21:07:40.029Z,66.67
2019-04-05T21:10:10.901Z,87.10
2019-04-05T21:12:40.154Z,95.23
2019-04-05T21:15:09.420Z,115.97
2019-04-05T21:17:39.183Z,106.57
2019-04-05T21:20:08.618Z,101.23
2019-04-05T21:22:37.981Z,103.03
2019-04-05T21:25:07.295Z,118.20
2019-04-05T21:27:37.584Z,153.20
2019-04-05T21:30:08.113Z,167.47
2019-04-05T21:32:37.346Z,151.70
2019-04-05T21:35:07.060Z,122.30
2019-04-05T21:37:36.320Z,139.33
2019-04-05T21:40:05.826Z,141.20
2019-04-05T21:42:35.193Z,152.13
2019-04-05T21:45:04.814Z,129.40
2019-04-05T21:47:34.400Z,185.53
2019-04-05T21:50:03.863Z,153.70
2019-04-05T21:52:33.173Z,170.23
2019-04-05T21:55:02.419Z,221.57
2019-04-05T21:57:31.671Z,231.57
2019-04-05T22:00:00.991Z,214.00
2019-04-05T22:02:30.683Z,190.57
2019-04-05T22:05:01.319Z,171.93
2019-04-05T22:07:30.735Z,136.50
2019-04-05T22:10:00.046Z,117.57
2019-04-05T22:12:29.328Z,103.17
2019-04-05T22:14:58.562Z,96.60
2019-04-05T22:17:28.306Z,92.33
2019-04-05T22:19:57.616Z,77.10
2019-04-05T22:22:27.477Z,88.47
2019-04-05T22:24:59.550Z,192.57
2019-04-05T22:27:27.790Z,443.97
2019-04-05T22:29:57.124Z,366.10
2019-04-05T22:32:26.472Z,253.10
2019-04-05T22:34:55.798Z,241.07
2019-04-05T22:37:25.196Z,273.90
2019-04-05T22:39:54.447Z,214.10
2019-04-05T22:42:23.685Z,211.37
2019-04-05T22:44:52.926Z,205.17
2019-04-05T22:47:22.168Z,185.43
2019-04-05T22:49:51.846Z,157.03
2019-04-05T22:52:21.090Z,93.03
2019-04-05T22:54:50.402Z,110.80
2019-04-05T22:57:19.734Z,80.20
2019-04-05T22:59:49.113Z,70.23
2019-04-05T23:02:18.372Z,89.93
2019-04-05T23:04:47.700Z,108.57
2019-04-05T23:07:16.952Z,87.73
2019-04-05T23:09:46.273Z,77.90
2019-04-05T23:12:15.523Z,81.77
2019-04-05T23:14:44.783Z,73.47
2019-04-05T23:17:14.015Z,52.30
2019-04-05T23:19:43.574Z,49.27
2019-04-05T23:22:13.058Z,45.07
2019-04-05T23:24:42.282Z,48.90
2019-04-05T23:27:11.539Z,39.80
2019-04-05T23:29:40.757Z,45.90
2019-04-05T23:32:09.990Z,43.43
2019-04-05T23:34:39.342Z,40.13
2019-04-05T23:37:08.569Z,42.87
2019-04-05T23:39:37.815Z,43.50
2019-04-05T23:42:07.145Z,58.73
2019-04-05T23:44:37.039Z,64.13
2019-04-05T23:47:06.918Z,64.33
2019-04-05T23:49:36.442Z,46.67
2019-04-05T23:52:05.697Z,48.97
2019-04-05T23:54:35.006Z,42.77
2019-04-05T23:57:04.287Z,40.27
2019-04-05T23:59:33.603Z,39.97
